createdAt,value
2022-11-28T00:01:24.487Z,98768.81
2022-11-28T00:03:51.819Z,98762.16
2022-11-28T00:06:19.106Z,98764.94
2022-11-28T00:08:46.335Z,98755.69
2022-11-28T00:11:14.986Z,98744.63
2022-11-28T00:13:42.977Z,98747.38
2022-11-28T00:16:16.394Z,98750.81
2022-11-28T00:18:44.184Z,98748.97
2022-11-28T00:21:13.448Z,98750.81
2022-11-28T00:23:41.533Z,98750.03
2022-11-28T00:26:10.488Z,98745.75
2022-11-28T00:28:37.995Z,98732.03
2022-11-28T00:31:05.223Z,98726.84
2022-11-28T00:33:33.489Z,98721.50
2022-11-28T00:36:02.023Z,98720.88
2022-11-28T00:38:29.841Z,98719.31
2022-11-28T00:41:16.146Z,98714.88
2022-11-28T00:43:44.689Z,98708.09
2022-11-28T00:46:13.285Z,98713.13
2022-11-28T00:48:41.343Z,98717.41
2022-11-28T00:51:23.302Z,98714.72
2022-11-28T00:53:51.798Z,98712.88
2022-11-28T00:56:24.671Z,98709.25
2022-11-28T00:58:52.325Z,98712.88
2022-11-28T01:01:25.829Z,98710.16
2022-11-28T01:03:55.461Z,98701.69
2022-11-28T01:06:24.205Z,98704.97
2022-11-28T01:08:51.974Z,98696.38
2022-11-28T01:11:19.430Z,98693.47
2022-11-28T01:13:46.395Z,98693.28
2022-11-28T01:16:13.429Z,98696.66
2022-11-28T01:18:40.541Z,98692.47
2022-11-28T01:21:08.524Z,98693.91
2022-11-28T01:23:36.113Z,98690.34
2022-11-28T01:26:05.721Z,98697.28
2022-11-28T01:28:33.512Z,98690.84
2022-11-28T01:31:21.813Z,98688.41
2022-11-28T01:33:49.303Z,98684.84
2022-11-28T01:36:17.191Z,98674.50
2022-11-28T01:38:44.595Z,98677.09
2022-11-28T01:41:12.321Z,98664.91
2022-11-28T01:43:57.818Z,98669.19
2022-11-28T01:46:24.804Z,98672.78
2022-11-28T01:48:52.913Z,98660.56
2022-11-28T01:51:20.623Z,98648.00
2022-11-28T01:53:48.615Z,98661.72
2022-11-28T01:56:23.424Z,98648.16
2022-11-28T01:58:56.710Z,98639.28
2022-11-28T02:01:25.397Z,98644.84
2022-11-28T02:03:53.016Z,98650.31
2022-11-28T02:06:23.838Z,98659.88
2022-11-28T02:08:54.937Z,98652.19
2022-11-28T02:11:36.936Z,98656.63
2022-11-28T02:14:25.075Z,98647.09
2022-11-28T02:17:21.298Z,98657.59
2022-11-28T02:20:06.904Z,98653.44
2022-11-28T02:22:51.619Z,98651.91
2022-11-28T02:25:43.288Z,98640.59
2022-11-28T02:28:47.330Z,98654.56
2022-11-28T02:31:44.962Z,98650.13
2022-11-28T02:34:20.512Z,98654.56
2022-11-28T02:36:55.699Z,98665.09
2022-11-28T02:39:45.555Z,98659.06
2022-11-28T02:42:23.936Z,98660.72
2022-11-28T02:45:05.928Z,98659.91
2022-11-28T02:47:36.628Z,98655.84
2022-11-28T02:50:22.146Z,98663.81
2022-11-28T02:53:02.480Z,98663.00
2022-11-28T02:55:29.886Z,98661.25
2022-11-28T02:57:56.909Z,98659.59
2022-11-28T03:00:28.900Z,98650.16
2022-11-28T03:03:23.547Z,98655.41
2022-11-28T03:06:10.642Z,98659.75
2022-11-28T03:08:56.206Z,98661.56
2022-11-28T03:11:55.237Z,98655.75
2022-11-28T03:14:42.641Z,98654.09
2022-11-28T03:17:24.992Z,98655.00
2022-11-28T03:20:10.269Z,98661.13
2022-11-28T03:22:48.997Z,98652.41
2022-11-28T03:25:37.502Z,98655.75
2022-11-28T03:28:11.570Z,98652.63
2022-11-28T03:30:46.070Z,98642.19
2022-11-28T03:33:16.468Z,98644.03
2022-11-28T03:35:54.577Z,98645.88
2022-11-28T03:38:32.573Z,98651.06
2022-11-28T03:41:03.289Z,98644.03
2022-11-28T03:43:36.911Z,98645.66
2022-11-28T03:46:08.684Z,98642.28
2022-11-28T03:48:40.420Z,98637.09
2022-11-28T03:51:16.316Z,98647.47
2022-11-28T03:53:59.668Z,98644.13
2022-11-28T03:56:45.903Z,98647.38
2022-11-28T03:59:26.519Z,98648.25
2022-11-28T04:02:11.356Z,98656.84
2022-11-28T04:04:59.937Z,98656.91
2022-11-28T04:07:54.586Z,98656.84
2022-11-28T04:10:41.786Z,98660.94
2022-11-28T04:13:14.124Z,98655.94
2022-11-28T04:16:01.904Z,98664.47
2022-11-28T04:18:51.627Z,98657.53
2022-11-28T04:21:24.165Z,98654.56
2022-11-28T04:23:55.248Z,98662.34
2022-11-28T04:26:33.868Z,98656.16
2022-11-28T04:29:08.363Z,98666.53
2022-11-28T04:31:36.880Z,98656.84
2022-11-28T04:34:09.196Z,98661.25
2022-11-28T04:36:39.625Z,98662.09
2022-11-28T04:39:13.141Z,98652.34
2022-11-28T04:41:45.898Z,98657.78
2022-11-28T04:44:19.848Z,98667.66
2022-11-28T04:46:52.865Z,98657.47
2022-11-28T04:49:19.915Z,98659.97
2022-11-28T04:51:57.113Z,98668.66
2022-11-28T04:54:35.502Z,98661.13
2022-11-28T04:57:14.821Z,98659.50
2022-11-28T04:59:43.261Z,98661.56
2022-11-28T05:02:12.271Z,98665.22
2022-11-28T05:04:39.565Z,98665.28
2022-11-28T05:07:08.581Z,98665.22
2022-11-28T05:09:36.457Z,98674.03
2022-11-28T05:12:03.544Z,98670.66
2022-11-28T05:14:30.511Z,98679.44
2022-11-28T05:16:57.420Z,98678.59
2022-11-28T05:19:24.431Z,98679.34
2022-11-28T05:21:53.275Z,98676.84
2022-11-28T05:24:22.275Z,98682.03
2022-11-28T05:26:49.578Z,98676.97
2022-11-28T05:29:16.916Z,98682.16
2022-11-28T05:31:43.998Z,98684.63
2022-11-28T05:34:10.981Z,98688.22
2022-11-28T05:36:37.855Z,98679.56
2022-11-28T05:39:04.736Z,98684.00
2022-11-28T05:41:33.008Z,98680.44
2022-11-28T05:44:01.333Z,98679.34
2022-11-28T05:46:29.721Z,98688.97
2022-11-28T05:48:57.304Z,98692.00
2022-11-28T05:51:24.791Z,98698.03
2022-11-28T05:53:51.785Z,98703.28
2022-11-28T05:56:20.606Z,98703.00
2022-11-28T05:58:47.585Z,98700.56
2022-11-28T06:01:20.305Z,98707.34
2022-11-28T06:03:47.662Z,98704.69
2022-11-28T06:06:18.543Z,98707.50
2022-11-28T06:08:46.916Z,98701.25
2022-11-28T06:11:15.073Z,98706.44
2022-11-28T06:13:43.474Z,98700.50
2022-11-28T06:16:12.390Z,98705.28
2022-11-28T06:18:40.113Z,98707.13
2022-11-28T06:21:09.649Z,98696.06
2022-11-28T06:23:37.464Z,98704.63
2022-11-28T06:26:09.899Z,98700.13
2022-11-28T06:28:37.362Z,98702.88
2022-11-28T06:31:05.262Z,98698.44
2022-11-28T06:33:32.576Z,98702.72
2022-11-28T06:36:04.495Z,98686.53
2022-11-28T06:38:31.441Z,98687.25
2022-11-28T06:41:04.495Z,98690.66
2022-11-28T06:43:32.052Z,98686.41
2022-11-28T06:45:59.045Z,98685.50
2022-11-28T06:48:26.712Z,98690.88
2022-11-28T06:50:53.897Z,98681.44
2022-11-28T06:53:20.942Z,98681.97
2022-11-28T06:55:47.928Z,98681.13
2022-11-28T06:58:14.908Z,98681.97
2022-11-28T07:00:41.977Z,98675.66
2022-11-28T07:03:08.962Z,98677.63
2022-11-28T07:05:35.896Z,98674.81
2022-11-28T07:08:02.812Z,98677.59
2022-11-28T07:10:30.146Z,98663.50
2022-11-28T07:13:04.882Z,98665.00
2022-11-28T07:15:32.480Z,98668.38
2022-11-28T07:17:59.413Z,98677.59
2022-11-28T07:20:26.346Z,98665.56
2022-11-28T07:22:53.400Z,98661.97
2022-11-28T07:25:20.523Z,98660.69
2022-11-28T07:27:47.473Z,98663.09
2022-11-28T07:30:14.557Z,98656.25
2022-11-28T07:32:41.766Z,98659.50
2022-11-28T07:35:09.115Z,98656.63
2022-11-28T07:37:36.481Z,98653.88
2022-11-28T07:40:05.125Z,98657.22
2022-11-28T07:42:32.091Z,98642.44
2022-11-28T07:45:05.485Z,98648.91
2022-11-28T07:47:32.504Z,98645.47
2022-11-28T07:49:59.393Z,98643.47
2022-11-28T07:52:26.309Z,98641.50
2022-11-28T07:54:53.245Z,98646.34
2022-11-28T07:57:20.295Z,98642.31
2022-11-28T07:59:47.206Z,98650.41
2022-11-28T08:02:14.292Z,98649.66
2022-11-28T08:04:48.380Z,98647.22
2022-11-28T08:07:17.427Z,98648.22
2022-11-28T08:09:44.849Z,98643.28
2022-11-28T08:12:11.931Z,98642.34
2022-11-28T08:14:38.862Z,98635.41
2022-11-28T08:17:05.783Z,98645.03
2022-11-28T08:19:35.383Z,98650.44
2022-11-28T08:22:02.751Z,98649.59
2022-11-28T08:24:29.679Z,98642.34
2022-11-28T08:26:57.288Z,98633.72
2022-11-28T08:29:24.183Z,98632.91
2022-11-28T08:31:51.131Z,98635.72
2022-11-28T08:34:18.055Z,98636.63
2022-11-28T08:36:45.057Z,98637.47
2022-11-28T08:39:27.795Z,98634.66
2022-11-28T08:41:59.705Z,98633.31
2022-11-28T08:44:30.168Z,98625.44
2022-11-28T08:46:57.467Z,98625.88
2022-11-28T08:49:24.405Z,98628.09
2022-11-28T08:51:51.379Z,98628.31
2022-11-28T08:54:18.337Z,98621.97
2022-11-28T08:56:47.967Z,98619.38
2022-11-28T08:59:14.967Z,98615.53
2022-11-28T09:01:41.921Z,98607.53
2022-11-28T09:04:08.981Z,98600.59
2022-11-28T09:06:39.330Z,98601.50
2022-11-28T09:09:06.428Z,98599.91
2022-11-28T09:11:33.461Z,98595.25
2022-11-28T09:14:00.687Z,98600.44
2022-11-28T09:16:27.841Z,98601.00
2022-11-28T09:18:57.612Z,98604.69
2022-11-28T09:21:24.623Z,98594.94
2022-11-28T09:23:54.450Z,98590.13
2022-11-28T09:26:24.738Z,98587.75
2022-11-28T09:28:52.434Z,98586.53
2022-11-28T09:31:20.683Z,98584.78
2022-11-28T09:33:49.559Z,98584.94
2022-11-28T09:36:22.261Z,98566.03
2022-11-28T09:38:49.898Z,98564.03
2022-11-28T09:41:28.857Z,98563.69
2022-11-28T09:43:59.039Z,98569.72
2022-11-28T10:18:58.128Z,98534.16
2022-11-28T10:21:37.318Z,98528.22
2022-11-28T10:24:11.976Z,98521.63
2022-11-28T10:26:44.584Z,98521.56
2022-11-28T10:29:26.666Z,98516.47
2022-11-28T10:31:59.986Z,98507.84
2022-11-28T10:34:34.912Z,98509.38
2022-11-28T10:37:11.145Z,98509.19
2022-11-28T10:39:43.389Z,98503.81
2022-11-28T10:42:35.642Z,98501.81
2022-11-28T10:45:05.261Z,98502.88
2022-11-28T10:47:50.318Z,98489.47
2022-11-28T10:50:47.829Z,98483.22
2022-11-28T10:53:14.680Z,98485.41
2022-11-28T10:56:14.238Z,98486.16
2022-11-28T10:58:47.005Z,98484.59
2022-11-28T11:01:14.225Z,98482.63
2022-11-28T11:03:41.842Z,98482.00
2022-11-28T11:06:09.191Z,98473.19
2022-11-28T11:08:38.166Z,98465.47
2022-11-28T11:11:19.402Z,98464.91
2022-11-28T11:14:03.043Z,98464.16
2022-11-28T11:16:56.538Z,98470.00
2022-11-28T11:19:23.429Z,98467.34
2022-11-28T11:22:21.148Z,98468.44
2022-11-28T11:25:12.929Z,98460.81
2022-11-28T11:27:51.840Z,98471.13
2022-11-28T11:30:35.108Z,98469.59
2022-11-28T11:33:05.980Z,98473.19
2022-11-28T11:35:45.029Z,98471.44
2022-11-28T11:38:20.817Z,98472.53
2022-11-28T11:40:52.028Z,98469.16
2022-11-28T11:43:24.638Z,98459.31
2022-11-28T11:46:10.298Z,98454.78
2022-11-28T11:48:39.618Z,98456.97
2022-11-28T11:51:08.143Z,98449.94
2022-11-28T11:53:35.100Z,98445.22
2022-11-28T11:56:03.857Z,98436.78
2022-11-28T11:58:52.912Z,98440.88
2022-11-28T12:01:21.796Z,98436.34
2022-11-28T12:03:51.521Z,98437.44
2022-11-28T12:06:25.249Z,98429.91
2022-11-28T12:08:54.002Z,98440.88
2022-11-28T12:11:32.003Z,98437.28
2022-11-28T12:14:13.684Z,98437.28
2022-11-28T12:17:00.576Z,98438.38
2022-11-28T12:19:46.015Z,98443.66
2022-11-28T12:22:25.129Z,98428.91
2022-11-28T12:25:11.776Z,98426.66
2022-11-28T12:27:50.330Z,98424.22
2022-11-28T12:30:20.378Z,98424.06
2022-11-28T12:33:06.092Z,98410.84
2022-11-28T12:35:42.438Z,98417.94
2022-11-28T12:38:15.200Z,98430.78
2022-11-28T12:40:52.071Z,98426.66
2022-11-28T12:43:24.853Z,98427.59
2022-11-28T12:46:23.330Z,98432.03
2022-11-28T12:49:12.273Z,98428.19
2022-11-28T12:52:04.030Z,98414.69
2022-11-28T12:55:01.504Z,98417.94
2022-11-28T12:57:50.543Z,98422.22
2022-11-28T13:00:28.009Z,98426.41
2022-11-28T13:03:13.108Z,98425.91
2022-11-28T13:05:58.210Z,98428.69
2022-11-28T13:08:28.087Z,98427.00
2022-11-28T13:11:18.182Z,98436.63
2022-11-28T13:13:49.864Z,98433.88
2022-11-28T13:16:26.432Z,98434.88
2022-11-28T13:19:16.880Z,98438.31
2022-11-28T13:21:49.668Z,98444.34
2022-11-28T13:24:25.541Z,98437.56
2022-11-28T13:27:05.887Z,98445.19
2022-11-28T13:29:56.713Z,98454.44
2022-11-28T13:32:55.321Z,98455.97
2022-11-28T13:35:23.830Z,98453.72
2022-11-28T13:40:52.796Z,98443.31
2022-11-28T13:43:22.538Z,98437.56
2022-11-28T13:45:52.628Z,98427.94
2022-11-28T13:49:13.251Z,98431.38
2022-11-28T13:51:33.669Z,98423.75
2022-11-28T13:54:19.394Z,98435.78
2022-11-28T13:57:11.167Z,98426.81
2022-11-28T13:59:38.731Z,98425.91
2022-11-28T14:02:25.872Z,98427.00
2022-11-28T14:04:52.940Z,98427.94
2022-11-28T14:07:28.038Z,98434.03
2022-11-28T14:10:09.789Z,98429.88
2022-11-28T14:13:05.613Z,98427.28
2022-11-28T14:15:53.384Z,98430.78
2022-11-28T14:18:48.289Z,98429.03
2022-11-28T14:21:30.701Z,98423.00
2022-11-28T14:24:22.195Z,98428.44
2022-11-28T14:26:58.954Z,98422.34
2022-11-28T14:29:38.679Z,98424.09
2022-11-28T14:32:30.029Z,98436.31
2022-11-28T14:34:54.875Z,98429.38
2022-11-28T14:37:22.098Z,98423.41
2022-11-28T14:39:50.706Z,98432.13
2022-11-28T14:42:37.201Z,98436.56
2022-11-28T14:45:49.593Z,98435.56
2022-11-28T14:48:22.380Z,98441.50
2022-11-28T14:50:57.556Z,98432.22
2022-11-28T14:53:33.958Z,98437.50
2022-11-28T14:56:16.048Z,98432.31
2022-11-28T14:58:48.014Z,98445.44
2022-11-28T15:01:25.419Z,98429.28
2022-11-28T15:03:59.202Z,98443.28
2022-11-28T15:06:36.166Z,98431.47
2022-11-28T15:09:07.788Z,98439.34
2022-11-28T15:11:59.634Z,98445.53
2022-11-28T15:14:29.222Z,98438.81
2022-11-28T15:17:00.667Z,98431.97
2022-11-28T15:19:33.186Z,98429.38
2022-11-28T15:22:00.773Z,98422.53
2022-11-28T15:24:30.762Z,98430.16
2022-11-28T15:27:07.129Z,98434.66
2022-11-28T15:29:35.697Z,98433.00
2022-11-28T15:32:04.129Z,98439.00
2022-11-28T15:34:33.604Z,98434.66
2022-11-28T15:37:04.725Z,98434.66
2022-11-28T15:39:39.992Z,98436.41
2022-11-28T15:42:25.068Z,98435.50
2022-11-28T15:45:03.865Z,98435.59
2022-11-28T15:47:31.452Z,98437.34
2022-11-28T15:50:05.653Z,98427.03
2022-11-28T15:52:32.851Z,98420.28
2022-11-28T15:55:00.169Z,98431.56
2022-11-28T15:57:28.658Z,98439.34
2022-11-28T15:59:56.698Z,98432.66
2022-11-28T16:02:29.492Z,98433.38
2022-11-28T16:05:11.359Z,98428.19
2022-11-28T16:07:43.346Z,98431.97
2022-11-28T16:10:22.247Z,98435.22
2022-11-28T16:12:49.888Z,98436.75
2022-11-28T16:15:22.448Z,98438.75
2022-11-28T16:17:49.886Z,98436.16
2022-11-28T16:20:23.542Z,98432.06
2022-11-28T16:22:50.524Z,98440.66
2022-11-28T16:25:23.999Z,98431.31
2022-11-28T16:27:53.445Z,98422.75
2022-11-28T16:30:23.710Z,98433.06
2022-11-28T16:32:52.820Z,98426.28
2022-11-28T16:35:31.750Z,98421.91
2022-11-28T16:38:05.998Z,98428.88
2022-11-28T16:40:33.321Z,98436.63
2022-11-28T16:43:03.030Z,98436.00
2022-11-28T16:45:32.886Z,98431.47
2022-11-28T16:48:15.424Z,98433.22
2022-11-28T16:51:02.171Z,98430.63
2022-11-28T16:53:55.779Z,98426.28
2022-11-28T16:56:31.591Z,98425.53
2022-11-28T16:59:09.160Z,98439.47
2022-11-28T17:01:36.398Z,98439.66
2022-11-28T17:04:04.182Z,98428.28
2022-11-28T17:06:37.689Z,98439.66
2022-11-28T17:09:11.193Z,98447.34
2022-11-28T17:11:43.130Z,98437.22
2022-11-28T17:14:13.850Z,98445.00
2022-11-28T17:16:42.168Z,98445.06
2022-11-28T17:19:09.440Z,98446.00
2022-11-28T17:21:42.071Z,98436.56
2022-11-28T17:24:23.370Z,98427.16
2022-11-28T17:26:51.567Z,98424.53
2022-11-28T17:29:19.557Z,98427.03
2022-11-28T17:31:48.368Z,98432.34
2022-11-28T17:34:20.970Z,98424.56
2022-11-28T17:36:48.143Z,98428.00
2022-11-28T17:39:15.427Z,98424.53
2022-11-28T17:41:42.945Z,98421.06
2022-11-28T17:44:21.957Z,98418.56
2022-11-28T17:46:50.525Z,98420.22
2022-11-28T17:49:18.487Z,98410.78
2022-11-28T17:51:45.545Z,98413.56
2022-11-28T17:54:16.489Z,98424.75
2022-11-28T17:56:50.167Z,98431.69
2022-11-28T17:59:20.363Z,98427.41
2022-11-28T18:01:48.540Z,98432.69
2022-11-28T18:04:15.807Z,98429.44
2022-11-28T18:06:44.677Z,98425.75
2022-11-28T18:09:12.769Z,98426.91
2022-11-28T18:11:40.841Z,98420.88
2022-11-28T18:14:08.989Z,98413.28
2022-11-28T18:16:36.454Z,98414.13
2022-11-28T18:19:04.432Z,98416.78
2022-11-28T18:21:32.337Z,98414.19
2022-11-28T18:23:59.401Z,98405.84
2022-11-28T18:26:26.888Z,98405.84
2022-11-28T18:28:54.682Z,98408.50
2022-11-28T18:31:25.225Z,98404.31
2022-11-28T18:33:56.244Z,98405.25
2022-11-28T18:36:27.771Z,98397.53
2022-11-28T18:39:02.359Z,98391.50
2022-11-28T18:41:30.395Z,98385.34
2022-11-28T18:44:03.548Z,98386.34
2022-11-28T18:46:31.651Z,98389.84
2022-11-28T18:48:58.787Z,98389.69
2022-11-28T18:51:31.183Z,98386.84
2022-11-28T18:53:58.705Z,98391.28
2022-11-28T18:56:26.656Z,98393.88
2022-11-28T18:58:54.657Z,98396.31
2022-11-28T19:01:29.139Z,98390.44
2022-11-28T19:04:02.201Z,98401.63
2022-11-28T19:06:30.150Z,98407.41
2022-11-28T19:08:59.689Z,98403.06
2022-11-28T19:11:28.699Z,98407.66
2022-11-28T19:13:57.137Z,98410.16
2022-11-28T19:16:27.507Z,98407.66
2022-11-28T19:18:55.826Z,98396.78
2022-11-28T19:21:25.765Z,98415.16
2022-11-28T19:23:55.273Z,98411.72
2022-11-28T19:26:25.483Z,98401.28
2022-11-28T19:28:53.910Z,98403.28
2022-11-28T19:31:29.289Z,98404.97
2022-11-28T19:34:01.162Z,98400.75
2022-11-28T19:36:37.564Z,98391.22
2022-11-28T19:39:05.401Z,98381.88
2022-11-28T19:41:32.826Z,98375.09
2022-11-28T19:44:00.580Z,98380.22
2022-11-28T19:46:35.159Z,98379.38
2022-11-28T19:49:06.709Z,98379.38
2022-11-28T19:51:34.904Z,98386.22
2022-11-28T19:54:03.786Z,98376.84
2022-11-28T19:56:33.371Z,98373.38
2022-11-28T19:59:00.653Z,98374.03
2022-11-28T20:01:28.383Z,98382.47
2022-11-28T20:03:55.705Z,98380.72
2022-11-28T20:06:31.108Z,98371.94
2022-11-28T20:09:01.435Z,98377.81
2022-11-28T20:11:31.911Z,98376.25
2022-11-28T20:14:06.615Z,98383.22
2022-11-28T20:16:35.761Z,98377.22
2022-11-28T20:19:04.815Z,98381.47
2022-11-28T20:21:33.114Z,98373.78
2022-11-28T20:24:07.450Z,98376.28
2022-11-28T20:26:42.208Z,98372.13
2022-11-28T20:29:12.189Z,98379.13
2022-11-28T20:31:46.042Z,98376.78
2022-11-28T20:34:17.549Z,98377.78
2022-11-28T20:36:45.640Z,98370.84
2022-11-28T20:39:13.331Z,98373.59
2022-11-28T20:41:40.377Z,98375.34
2022-11-28T20:44:07.603Z,98377.88
2022-11-28T20:46:35.706Z,98382.22
2022-11-28T20:49:05.796Z,98388.22
2022-11-28T20:51:34.078Z,98388.91
2022-11-28T20:54:01.987Z,98378.56
2022-11-28T20:56:31.891Z,98385.41
2022-11-28T20:59:00.883Z,98374.13
2022-11-28T21:01:31.130Z,98373.19
2022-11-28T21:03:58.535Z,98375.69
2022-11-28T21:06:25.625Z,98373.19
2022-11-28T21:08:52.635Z,98384.16
2022-11-28T21:11:50.087Z,98388.50
2022-11-28T21:14:08.471Z,98375.63
2022-11-28T21:16:35.480Z,98385.06
2022-11-28T21:19:06.493Z,98381.66
2022-11-28T21:21:34.411Z,98380.81
2022-11-28T21:24:04.662Z,98378.13
2022-11-28T21:26:37.592Z,98382.47
2022-11-28T21:29:09.390Z,98380.56
2022-11-28T21:31:41.392Z,98370.38
2022-11-28T21:34:08.349Z,98377.91
2022-11-28T21:36:35.364Z,98376.88
2022-11-28T21:39:02.406Z,98370.72
2022-11-28T21:41:31.662Z,98374.22
2022-11-28T21:43:59.557Z,98374.31
2022-11-28T21:46:27.739Z,98371.72
2022-11-28T21:48:55.021Z,98370.97
2022-11-28T21:51:24.042Z,98375.06
2022-11-28T21:53:51.891Z,98366.28
2022-11-28T21:56:19.305Z,98371.56
2022-11-28T21:58:46.181Z,98367.13
2022-11-28T22:01:14.883Z,98372.16
2022-11-28T22:03:43.906Z,98367.22
2022-11-28T22:06:17.825Z,98369.72
2022-11-28T22:08:45.551Z,98365.47
2022-11-28T22:11:13.532Z,98371.47
2022-11-28T22:13:42.851Z,98371.38
2022-11-28T22:16:12.396Z,98364.44
2022-11-28T22:18:39.355Z,98367.88
2022-11-28T22:21:22.548Z,98362.03
2022-11-28T22:23:58.191Z,98361.94
2022-11-28T22:26:25.115Z,98361.13
2022-11-28T22:28:53.844Z,98360.88
2022-11-28T22:31:23.338Z,98361.63
2022-11-28T22:33:50.499Z,98360.88
2022-11-28T22:36:19.861Z,98354.84
2022-11-28T22:38:49.023Z,98361.47
2022-11-28T22:41:27.922Z,98353.75
2022-11-28T22:43:57.898Z,98351.94
2022-11-28T22:46:24.987Z,98341.34
2022-11-28T22:48:52.238Z,98338.47
2022-11-28T22:51:24.655Z,98332.63
2022-11-28T22:53:56.785Z,98338.56
2022-11-28T22:56:26.491Z,98338.66
2022-11-28T22:58:54.074Z,98336.88
2022-11-28T23:01:24.373Z,98334.88
2022-11-28T23:03:52.188Z,98334.31
2022-11-28T23:06:21.670Z,98333.81
2022-11-28T23:08:54.495Z,98329.72
2022-11-28T23:11:24.112Z,98324.34
2022-11-28T23:13:52.331Z,98321.94
2022-11-28T23:16:19.510Z,98315.66
2022-11-28T23:18:51.674Z,98314.75
2022-11-28T23:21:20.029Z,98308.06
2022-11-28T23:23:47.707Z,98301.69
2022-11-28T23:26:26.393Z,98297.53
2022-11-28T23:28:54.255Z,98295.00
2022-11-28T23:31:27.700Z,98295.91
2022-11-28T23:33:55.673Z,98298.41
2022-11-28T23:36:28.541Z,98296.59
2022-11-28T23:38:58.462Z,98283.47
2022-11-28T23:41:26.443Z,98282.47
2022-11-28T23:43:53.443Z,98283.13
2022-11-28T23:46:23.667Z,98271.34
2022-11-28T23:48:50.996Z,98276.09
2022-11-28T23:51:20.117Z,98266.66
2022-11-28T23:53:47.215Z,98269.16
2022-11-28T23:56:19.898Z,98264.72
2022-11-28T23:58:47.626Z,98264.72
